Time;durP1;ratioP1;P1;durP2;ratioP2;P2;SDS_P1;SDS_P2;PMS_P1;PMS_P2;Temp;Humidity;BMP_temperature;BMP_pressure;BME280_temperature;BME280_humidity;BME280_pressure;Samples;Min_cycle;Max_cycle;Signal;HPM_P1;HPM_P2
2022/10/19 00:01:06;;;;;;;8.10;4.27;;;12.20;1.00;;;;;;6380725;27;20246;-53
2022/10/19 00:04:10;;;;;;;6.80;4.20;;;12.20;1.00;;;;;;6389964;27;20496;-54
2022/10/19 00:07:13;;;;;;;4.03;3.53;;;12.20;1.00;;;;;;6388951;27;20237;-54
2022/10/19 00:10:16;;;;;;;4.90;3.80;;;12.30;1.00;;;;;;6388958;27;20260;-53
2022/10/19 00:13:18;;;;;;;6.80;4.30;;;12.30;1.00;;;;;;6384228;27;20246;-55
2022/10/19 00:16:22;;;;;;;4.67;4.30;;;12.30;1.00;;;;;;6365239;27;20234;-53
2022/10/19 00:19:27;;;;;;;6.33;4.17;;;12.30;1.00;;;;;;6364264;27;20238;-55
2022/10/19 00:22:30;;;;;;;6.07;3.90;;;12.30;1.00;;;;;;6385385;27;20752;-61
2022/10/19 00:25:33;;;;;;;7.00;3.80;;;12.30;1.00;;;;;;6386535;27;20231;-54
2022/10/19 00:28:37;;;;;;;8.50;3.83;;;12.30;1.00;;;;;;6377893;27;20242;-57
2022/10/19 00:31:40;;;;;;;3.93;3.50;;;12.30;1.00;;;;;;6389408;27;20234;-54
2022/10/19 00:34:44;;;;;;;4.67;3.83;;;12.30;1.00;;;;;;6377784;27;20234;-53
2022/10/19 00:37:47;;;;;;;11.30;4.17;;;12.30;1.00;;;;;;6378116;27;20252;-54
2022/10/19 00:40:50;;;;;;;4.53;3.10;;;12.30;1.00;;;;;;6384527;27;20288;-53
2022/10/19 00:43:55;;;;;;;8.27;3.50;;;12.30;1.00;;;;;;6389195;27;20242;-53
2022/10/19 00:47:03;;;;;;;5.93;3.40;;;12.30;1.00;;;;;;6389420;27;20242;-54
2022/10/19 00:50:08;;;;;;;3.53;3.23;;;12.30;1.00;;;;;;6389556;27;20402;-54
2022/10/19 00:53:12;;;;;;;3.83;3.17;;;12.30;1.00;;;;;;6371535;27;20734;-53
2022/10/19 00:56:16;;;;;;;7.37;3.40;;;12.30;1.00;;;;;;6374971;27;20223;-53
2022/10/19 00:59:23;;;;;;;4.97;3.50;;;12.30;1.00;;;;;;6388770;27;20231;-54
2022/10/19 01:02:26;;;;;;;8.80;3.50;;;12.40;1.00;;;;;;6388875;27;20709;-53
2022/10/19 01:05:32;;;;;;;4.50;3.63;;;12.30;1.00;;;;;;6364299;27;20239;-53
2022/10/19 01:08:35;;;;;;;6.53;3.87;;;12.30;1.00;;;;;;6382089;27;20260;-54
2022/10/19 01:11:47;;;;;;;6.33;3.53;;;12.30;1.00;;;;;;6382297;27;20862;-56
2022/10/19 01:15:03;;;;;;;6.37;3.40;;;12.30;1.00;;;;;;6381109;27;20234;-53
2022/10/19 01:18:14;;;;;;;6.43;3.40;;;12.30;1.00;;;;;;6382124;27;20725;-53
2022/10/19 01:21:23;;;;;;;4.27;3.10;;;12.30;1.00;;;;;;6385797;27;20264;-52
2022/10/19 01:24:51;;;;;;;6.77;2.97;;;12.30;1.00;;;;;;6377083;27;20283;-53
2022/10/19 01:28:11;;;;;;;4.57;3.70;;;12.30;1.00;;;;;;6387816;27;20272;-54
2022/10/19 01:31:23;;;;;;;3.90;3.33;;;12.30;1.00;;;;;;6363233;27;20227;-53
2022/10/19 01:34:32;;;;;;;5.80;3.07;;;12.30;1.00;;;;;;6362013;27;20234;-53
2022/10/19 01:37:40;;;;;;;3.33;2.83;;;12.20;1.00;;;;;;6353586;27;20741;-53
2022/10/19 01:40:53;;;;;;;3.67;2.90;;;12.20;1.00;;;;;;6383307;27;20231;-53
2022/10/19 01:44:00;;;;;;;5.50;2.83;;;12.20;1.00;;;;;;6362050;27;20594;-53
2022/10/19 01:47:09;;;;;;;3.67;3.30;;;12.20;1.00;;;;;;6363195;27;20485;-53
2022/10/19 01:50:17;;;;;;;3.20;2.60;;;12.20;1.00;;;;;;6362006;27;20231;-52
2022/10/19 01:53:21;;;;;;;3.67;3.30;;;12.20;1.00;;;;;;6363564;27;20639;-53
2022/10/19 01:56:27;;;;;;;4.67;3.00;;;12.20;1.00;;;;;;6373282;27;20234;-54
2022/10/19 01:59:31;;;;;;;4.60;3.77;;;12.20;1.00;;;;;;6387982;27;20245;-53
2022/10/19 02:02:39;;;;;;;3.37;2.93;;;12.20;1.00;;;;;;6370719;27;20231;-53
2022/10/19 02:05:44;;;;;;;3.47;3.17;;;12.20;1.00;;;;;;6387706;27;20226;-53
2022/10/19 02:08:49;;;;;;;7.00;3.33;;;12.20;1.00;;;;;;6387556;27;20622;-52
2022/10/19 02:11:56;;;;;;;5.37;3.53;;;12.20;1.00;;;;;;6380299;27;20484;-53
2022/10/19 02:15:02;;;;;;;5.87;3.53;;;12.30;1.00;;;;;;6384115;27;20230;-52
2022/10/19 02:18:08;;;;;;;3.97;3.00;;;12.20;1.00;;;;;;6377262;27;20229;-54
2022/10/19 02:21:11;;;;;;;5.40;3.20;;;12.20;1.00;;;;;;6387256;27;20223;-54
2022/10/19 02:24:13;;;;;;;4.23;3.83;;;12.20;1.00;;;;;;6387221;27;20699;-53
2022/10/19 02:27:17;;;;;;;3.40;3.10;;;12.20;1.00;;;;;;6385836;27;20717;-53
2022/10/19 02:30:21;;;;;;;3.80;2.93;;;12.20;1.00;;;;;;6384326;27;20235;-54
2022/10/19 02:33:26;;;;;;;6.90;3.87;;;12.20;1.00;;;;;;6361967;27;20320;-53
2022/10/19 02:36:29;;;;;;;7.13;3.17;;;12.20;1.00;;;;;;6361598;27;20235;-55
2022/10/19 02:39:32;;;;;;;7.20;3.23;;;12.20;1.00;;;;;;6384696;27;20235;-53
2022/10/19 02:42:40;;;;;;;4.60;3.30;;;12.20;1.00;;;;;;6367599;27;20247;-53
2022/10/19 02:45:46;;;;;;;5.97;3.27;;;12.20;1.00;;;;;;6381171;27;20242;-60
2022/10/19 02:48:51;;;;;;;5.27;3.70;;;12.20;1.00;;;;;;6381325;27;20309;-53
2022/10/19 02:52:00;;;;;;;5.70;3.73;;;12.10;1.00;;;;;;6384424;27;20245;-53
2022/10/19 02:55:03;;;;;;;3.60;3.10;;;12.10;1.00;;;;;;6385740;27;20611;-53
2022/10/19 02:58:06;;;;;;;4.23;3.00;;;12.10;1.00;;;;;;6386814;27;20394;-54
2022/10/19 03:01:09;;;;;;;6.33;3.13;;;12.10;1.00;;;;;;6385946;27;20710;-53
2022/10/19 03:04:14;;;;;;;7.90;3.50;;;12.10;1.00;;;;;;6386653;27;20233;-53
2022/10/19 03:07:19;;;;;;;5.10;3.00;;;12.10;1.00;;;;;;6386940;27;20591;-53
2022/10/19 03:10:22;;;;;;;8.67;3.13;;;12.10;1.00;;;;;;6383013;27;20231;-54
2022/10/19 03:13:25;;;;;;;9.27;3.17;;;12.10;1.00;;;;;;6387139;27;20479;-55
2022/10/19 03:16:27;;;;;;;9.93;3.37;;;12.10;1.00;;;;;;6383822;27;20759;-53
2022/10/19 03:19:33;;;;;;;3.97;3.00;;;12.10;1.00;;;;;;6360489;27;20239;-55
2022/10/19 03:22:36;;;;;;;4.00;3.17;;;12.10;1.00;;;;;;6357846;27;20615;-53
2022/10/19 03:25:39;;;;;;;5.00;3.33;;;12.10;1.00;;;;;;6379553;27;20242;-53
2022/10/19 03:28:42;;;;;;;4.77;3.43;;;12.10;1.00;;;;;;6384991;27;20226;-52
2022/10/19 03:31:45;;;;;;;3.83;2.97;;;12.10;1.00;;;;;;6351283;27;22670;-53
2022/10/19 03:34:49;;;;;;;3.50;3.17;;;12.10;1.00;;;;;;6377759;27;20273;-53
2022/10/19 03:37:52;;;;;;;7.43;3.07;;;12.10;1.00;;;;;;6382041;27;20627;-53
2022/10/19 03:40:55;;;;;;;3.63;2.87;;;12.00;1.00;;;;;;6383206;27;20231;-52
2022/10/19 03:43:58;;;;;;;4.37;2.50;;;12.00;1.00;;;;;;6382555;27;20408;-52
2022/10/19 03:47:06;;;;;;;3.20;2.90;;;12.00;1.00;;;;;;6376458;27;20234;-58
2022/10/19 03:50:12;;;;;;;3.27;2.60;;;12.00;1.00;;;;;;6382087;27;20249;-60
2022/10/19 03:53:15;;;;;;;4.13;2.60;;;12.00;1.00;;;;;;6381200;27;20695;-52
2022/10/19 03:56:21;;;;;;;2.40;2.30;;;12.00;1.00;;;;;;6379223;27;20230;-53
2022/10/19 03:59:24;;;;;;;3.27;2.70;;;12.00;1.00;;;;;;6385693;27;20492;-53
2022/10/19 04:02:26;;;;;;;3.13;2.93;;;12.00;1.00;;;;;;6385466;27;20737;-54
2022/10/19 04:05:31;;;;;;;3.50;2.83;;;12.00;1.00;;;;;;6378475;27;20230;-53
2022/10/19 04:08:34;;;;;;;2.93;2.80;;;12.00;1.00;;;;;;6380960;27;20722;-53
2022/10/19 04:11:38;;;;;;;3.70;3.00;;;11.90;1.00;;;;;;6383430;27;20233;-53
2022/10/19 04:14:41;;;;;;;4.67;2.97;;;11.90;1.00;;;;;;6385915;27;20237;-56
2022/10/19 04:17:59;;;;;;;5.17;3.23;;;11.90;1.00;;;;;;6388821;27;20382;-53
2022/10/19 04:21:04;;;;;;;4.43;3.20;;;11.90;1.00;;;;;;6383829;27;20222;-48
2022/10/19 04:24:10;;;;;;;2.83;2.63;;;11.90;1.00;;;;;;6387276;27;20725;-53
2022/10/19 04:27:13;;;;;;;3.27;2.87;;;11.90;1.00;;;;;;6387775;27;20226;-54
2022/10/19 04:30:16;;;;;;;3.50;3.20;;;11.90;1.00;;;;;;6385503;27;20682;-60
2022/10/19 04:33:19;;;;;;;3.00;2.80;;;11.90;1.00;;;;;;6384160;27;20234;-52
2022/10/19 04:36:24;;;;;;;3.60;3.30;;;11.90;1.00;;;;;;6383797;27;20226;-53
2022/10/19 04:39:27;;;;;;;4.30;3.10;;;11.90;1.00;;;;;;6387179;27;20404;-53
2022/10/19 04:42:29;;;;;;;7.27;3.43;;;11.80;1.00;;;;;;6386803;27;20309;-54
2022/10/19 04:45:34;;;;;;;7.07;3.40;;;11.80;1.00;;;;;;6385188;27;20223;-53
2022/10/19 04:48:39;;;;;;;5.93;3.07;;;11.80;1.00;;;;;;6388133;27;20227;-53
2022/10/19 04:51:43;;;;;;;5.20;2.80;;;11.80;1.00;;;;;;6387110;27;20238;-53
2022/10/19 04:54:46;;;;;;;2.90;2.70;;;11.80;1.00;;;;;;6387106;27;20235;-53
2022/10/19 04:57:49;;;;;;;7.87;2.93;;;11.80;1.00;;;;;;6386184;27;20235;-53
2022/10/19 05:00:51;;;;;;;4.53;2.90;;;11.80;1.00;;;;;;6383782;27;20591;-53
2022/10/19 05:03:55;;;;;;;3.23;2.63;;;11.80;1.00;;;;;;6384378;27;20250;-53
2022/10/19 05:07:04;;;;;;;3.00;2.80;;;11.80;1.00;;;;;;6358175;27;20218;-53
2022/10/19 05:10:09;;;;;;;3.83;2.53;;;11.80;1.00;;;;;;6378830;27;20634;-53
2022/10/19 05:13:11;;;;;;;4.13;2.73;;;11.80;1.00;;;;;;6387057;27;20246;-52
2022/10/19 05:16:17;;;;;;;2.97;2.77;;;11.80;1.00;;;;;;6388829;27;20306;-54
2022/10/19 05:19:20;;;;;;;2.77;2.53;;;11.80;1.00;;;;;;6388750;27;20264;-54
2022/10/19 05:22:24;;;;;;;2.50;2.30;;;11.80;1.00;;;;;;6385265;27;20237;-52
2022/10/19 05:25:27;;;;;;;4.37;2.43;;;11.80;1.00;;;;;;6388231;27;20430;-56
2022/10/19 05:28:30;;;;;;;3.80;2.40;;;11.80;1.00;;;;;;6383062;27;20231;-55
2022/10/19 05:31:34;;;;;;;2.57;2.30;;;11.80;1.00;;;;;;6388039;27;20716;-53
2022/10/19 05:34:37;;;;;;;4.03;3.00;;;11.80;1.00;;;;;;6387410;27;20230;-53
2022/10/19 05:37:41;;;;;;;5.03;2.90;;;11.70;1.00;;;;;;6382942;27;20234;-53
2022/10/19 05:40:46;;;;;;;3.03;2.43;;;11.70;1.00;;;;;;6380625;27;20254;-53
2022/10/19 05:43:57;;;;;;;5.40;2.60;;;11.60;1.00;;;;;;6384881;27;20243;-51
2022/10/19 05:47:00;;;;;;;3.00;2.80;;;11.60;1.00;;;;;;6381837;27;20856;-53
2022/10/19 05:50:02;;;;;;;6.63;2.60;;;11.50;1.00;;;;;;6386602;27;20252;-53
2022/10/19 05:53:07;;;;;;;5.33;2.53;;;11.40;1.00;;;;;;6381862;27;20238;-53
2022/10/19 05:56:14;;;;;;;3.13;2.53;;;11.40;1.00;;;;;;6378538;27;20231;-54
2022/10/19 05:59:18;;;;;;;4.03;2.50;;;11.40;1.00;;;;;;6380367;27;20657;-53
2022/10/19 06:02:21;;;;;;;2.93;2.67;;;11.30;1.00;;;;;;6381627;27;20246;-53
2022/10/19 06:05:24;;;;;;;8.60;2.73;;;11.30;1.00;;;;;;6380079;27;20230;-54
2022/10/19 06:08:28;;;;;;;3.57;2.67;;;11.30;1.00;;;;;;6374100;27;20234;-53
2022/10/19 06:11:33;;;;;;;2.90;2.70;;;11.30;1.00;;;;;;6369272;27;20227;-54
2022/10/19 06:14:36;;;;;;;2.93;2.67;;;11.40;1.00;;;;;;6388382;27;20226;-53
2022/10/19 06:17:39;;;;;;;5.93;2.53;;;11.40;1.00;;;;;;6387439;27;20708;-53
2022/10/19 06:20:42;;;;;;;2.80;2.60;;;11.50;1.00;;;;;;6383700;27;20246;-54
2022/10/19 06:23:50;;;;;;;2.40;2.30;;;11.50;1.00;;;;;;6387395;27;20239;-53
2022/10/19 06:26:53;;;;;;;2.93;2.70;;;11.50;1.00;;;;;;6386641;27;20226;-53
2022/10/19 06:29:55;;;;;;;4.27;2.63;;;11.60;1.00;;;;;;6383678;27;20235;-54
2022/10/19 06:32:58;;;;;;;3.80;2.57;;;11.60;1.00;;;;;;6383092;27;20234;-53
2022/10/19 06:36:06;;;;;;;2.60;2.40;;;11.60;1.00;;;;;;6378216;27;20233;-53
2022/10/19 06:39:10;;;;;;;3.17;2.60;;;11.60;1.00;;;;;;6379688;27;20606;-52
2022/10/19 06:42:13;;;;;;;3.77;2.57;;;11.70;1.00;;;;;;6382098;27;20234;-53
2022/10/19 06:45:16;;;;;;;5.27;2.60;;;11.80;1.00;;;;;;6379100;27;20234;-52
2022/10/19 06:48:18;;;;;;;3.20;2.80;;;11.80;1.00;;;;;;6385178;27;20242;-55
2022/10/19 06:51:22;;;;;;;3.87;2.97;;;11.80;1.00;;;;;;6382399;27;20714;-52
2022/10/19 06:54:26;;;;;;;6.77;2.70;;;11.80;1.00;;;;;;6384463;27;20617;-54
2022/10/19 06:57:29;;;;;;;4.17;2.23;;;11.80;1.00;;;;;;6380314;27;20598;-57
2022/10/19 07:00:32;;;;;;;3.73;2.53;;;11.90;1.00;;;;;;6385117;27;20230;-60
2022/10/19 07:03:35;;;;;;;5.27;2.40;;;11.90;1.00;;;;;;6385134;27;20264;-54
2022/10/19 07:06:38;;;;;;;4.20;2.77;;;11.90;1.00;;;;;;6384766;27;20238;-53
2022/10/19 07:09:42;;;;;;;3.13;2.30;;;12.00;1.00;;;;;;6385287;27;20895;-53
2022/10/19 07:12:45;;;;;;;4.57;3.10;;;12.00;1.00;;;;;;6379577;27;20227;-54
2022/10/19 07:15:48;;;;;;;3.80;2.57;;;12.00;1.00;;;;;;6380132;27;20608;-55
2022/10/19 07:18:52;;;;;;;4.80;2.80;;;12.10;1.00;;;;;;6384264;27;20231;-53
2022/10/19 07:21:55;;;;;;;6.47;2.57;;;12.20;1.00;;;;;;6383589;27;20253;-55
2022/10/19 07:24:59;;;;;;;6.83;2.70;;;12.20;1.00;;;;;;6382573;27;20238;-53
2022/10/19 07:28:02;;;;;;;8.77;2.70;;;12.20;1.00;;;;;;6385122;27;20234;-53
2022/10/19 07:31:07;;;;;;;6.00;2.37;;;12.30;1.00;;;;;;6383562;27;20400;-53
2022/10/19 07:34:12;;;;;;;3.73;2.50;;;12.40;1.00;;;;;;6377956;27;20627;-55
2022/10/19 07:37:14;;;;;;;4.33;2.63;;;12.40;1.00;;;;;;6385164;27;20606;-58
2022/10/19 07:40:19;;;;;;;3.10;2.13;;;12.50;1.00;;;;;;6378285;27;20230;-54
2022/10/19 07:43:21;;;;;;;3.67;2.47;;;12.50;1.00;;;;;;6376154;27;20243;-54
2022/10/19 07:46:27;;;;;;;6.47;2.83;;;12.50;1.00;;;;;;6377537;27;20460;-53
2022/10/19 07:49:30;;;;;;;2.77;2.60;;;12.60;1.00;;;;;;6381818;27;20222;-55
2022/10/19 07:52:33;;;;;;;4.20;2.47;;;12.60;1.00;;;;;;6390928;27;20230;-54
2022/10/19 07:55:40;;;;;;;3.57;2.37;;;12.70;1.00;;;;;;6381176;27;20904;-54
2022/10/19 07:58:43;;;;;;;2.27;2.17;;;12.60;1.00;;;;;;6390264;27;20714;-54
2022/10/19 08:01:47;;;;;;;2.70;2.43;;;12.70;1.00;;;;;;6387097;27;20235;-54
2022/10/19 08:04:51;;;;;;;4.30;2.17;;;12.70;1.00;;;;;;6391248;27;20797;-54
2022/10/19 08:08:06;;;;;;;3.90;2.50;;;12.80;1.00;;;;;;6385164;27;20719;-53
2022/10/19 08:11:12;;;;;;;5.00;2.80;;;12.80;1.00;;;;;;6377537;27;20235;-53
2022/10/19 08:14:15;;;;;;;3.40;2.50;;;12.80;1.00;;;;;;6386944;27;20248;-55
2022/10/19 08:17:18;;;;;;;3.27;2.60;;;12.80;1.00;;;;;;6386677;27;20227;-54
2022/10/19 08:20:20;;;;;;;8.83;3.00;;;12.80;1.00;;;;;;6389852;27;20230;-53
2022/10/19 08:23:26;;;;;;;4.03;3.20;;;12.80;1.00;;;;;;6383973;27;20246;-53
2022/10/19 08:26:30;;;;;;;3.50;2.43;;;12.80;1.00;;;;;;6389585;27;20275;-53
2022/10/19 08:29:33;;;;;;;3.53;2.70;;;12.70;1.00;;;;;;6390129;27;20819;-53
2022/10/19 08:32:36;;;;;;;3.17;2.93;;;12.70;1.00;;;;;;6389329;27;20235;-56
2022/10/19 08:35:39;;;;;;;7.43;2.70;;;12.70;1.00;;;;;;6387289;27;20253;-54
2022/10/19 08:38:43;;;;;;;6.90;3.00;;;12.80;1.00;;;;;;6387970;27;20227;-53
2022/10/19 08:41:57;;;;;;;6.23;3.27;;;12.90;1.00;;;;;;6387896;27;20263;-53
2022/10/19 08:45:25;;;;;;;5.50;3.00;;;13.00;1.00;;;;;;6378446;27;20235;-54
2022/10/19 08:48:31;;;;;;;4.57;2.80;;;13.00;1.00;;;;;;6369605;27;20219;-55
2022/10/19 08:51:40;;;;;;;4.40;2.97;;;13.30;1.00;;;;;;6386728;27;20364;-53
2022/10/19 08:54:48;;;;;;;5.03;2.90;;;13.30;1.00;;;;;;6384702;27;20223;-54
2022/10/19 08:57:59;;;;;;;4.67;2.60;;;13.30;1.00;;;;;;6384474;27;20231;-54
2022/10/19 09:01:09;;;;;;;4.50;2.73;;;13.30;1.00;;;;;;6386887;27;20238;-54
2022/10/19 09:04:19;;;;;;;3.30;2.47;;;13.50;1.00;;;;;;6386150;27;21177;-54
2022/10/19 09:07:25;;;;;;;4.83;2.83;;;13.60;1.00;;;;;;6380119;27;20321;-54
2022/10/19 09:10:32;;;;;;;2.87;2.70;;;13.60;1.00;;;;;;6386154;27;20254;-54
2022/10/19 09:13:41;;;;;;;4.80;2.73;;;13.70;1.00;;;;;;6383755;27;21164;-53
2022/10/19 09:17:10;;;;;;;5.67;2.37;;;13.90;1.00;;;;;;6381043;27;20238;-53
2022/10/19 09:20:19;;;;;;;2.67;2.47;;;13.90;1.00;;;;;;6387824;27;20253;-55
2022/10/19 09:23:28;;;;;;;5.53;2.67;;;14.20;1.00;;;;;;6387263;27;20230;-53
2022/10/19 09:26:36;;;;;;;4.00;2.30;;;14.20;1.00;;;;;;6382731;27;20246;-53
2022/10/19 09:29:44;;;;;;;2.50;2.30;;;14.20;1.00;;;;;;6381994;27;20227;-53
2022/10/19 09:32:50;;;;;;;3.50;3.20;;;14.10;1.00;;;;;;6385507;27;20230;-53
2022/10/19 09:35:55;;;;;;;3.90;2.60;;;14.10;1.00;;;;;;6381026;27;20234;-54
2022/10/19 09:38:58;;;;;;;2.63;2.40;;;14.10;1.00;;;;;;6378519;27;20238;-53
2022/10/19 09:42:08;;;;;;;5.93;2.33;;;14.10;1.00;;;;;;6385687;27;20238;-54
2022/10/19 09:45:19;;;;;;;5.67;2.70;;;14.10;1.00;;;;;;6369415;27;20732;-54
2022/10/19 09:48:28;;;;;;;8.63;2.50;;;14.00;1.00;;;;;;6380966;27;20742;-54
2022/10/19 09:51:49;;;;;;;4.03;2.70;;;14.00;1.00;;;;;;6376845;27;20605;-54
2022/10/19 09:55:00;;;;;;;4.33;2.60;;;14.00;1.00;;;;;;6376265;27;20721;-54
2022/10/19 09:58:15;;;;;;;2.00;1.90;;;14.10;1.00;;;;;;6384608;27;20234;-53
2022/10/19 10:01:34;;;;;;;2.63;2.00;;;14.30;1.00;;;;;;6386534;27;20729;-54
2022/10/19 10:04:54;;;;;;;2.20;2.00;;;14.70;1.00;;;;;;6380338;27;20234;-52
2022/10/19 10:07:57;;;;;;;2.83;2.00;;;14.90;1.00;;;;;;6378353;27;20255;-54
2022/10/19 10:11:06;;;;;;;4.53;2.20;;;14.90;1.00;;;;;;6385699;27;20238;-55
2022/10/19 10:14:19;;;;;;;2.93;2.33;;;14.80;1.00;;;;;;6385987;27;20672;-55
2022/10/19 10:17:30;;;;;;;3.77;1.90;;;14.60;1.00;;;;;;6384747;27;20226;-55
2022/10/19 10:20:33;;;;;;;7.00;2.43;;;14.50;1.00;;;;;;6384420;27;20251;-54
2022/10/19 10:23:36;;;;;;;2.23;2.00;;;14.50;1.00;;;;;;6381468;27;20238;-53
2022/10/19 10:26:41;;;;;;;2.03;1.80;;;14.50;1.00;;;;;;6382491;27;20238;-53
2022/10/19 10:29:54;;;;;;;1.87;1.77;;;14.70;1.00;;;;;;6384389;27;20266;-53
2022/10/19 10:33:04;;;;;;;2.63;1.80;;;14.80;1.00;;;;;;6378301;27;20257;-54
2022/10/19 10:36:28;;;;;;;1.77;1.70;;;14.90;1.00;;;;;;6385990;27;20230;-55
2022/10/19 10:39:32;;;;;;;1.60;1.60;;;15.10;1.00;;;;;;6352331;27;20225;-53
2022/10/19 10:42:40;;;;;;;3.50;1.80;;;15.20;1.00;;;;;;6383451;27;20280;-54
2022/10/19 10:45:46;;;;;;;1.87;1.77;;;15.40;1.00;;;;;;6385584;27;20231;-53
2022/10/19 10:48:57;;;;;;;1.90;1.80;;;15.50;1.00;;;;;;6384664;27;20457;-54
2022/10/19 10:52:04;;;;;;;1.57;1.53;;;15.70;1.00;;;;;;6382895;27;20243;-54
2022/10/19 10:55:17;;;;;;;1.70;1.60;;;15.80;1.00;;;;;;6376040;27;20231;-56
2022/10/19 10:58:31;;;;;;;1.93;1.80;;;15.90;1.00;;;;;;6372765;27;20234;-55
2022/10/19 11:01:39;;;;;;;1.60;1.60;;;15.90;1.00;;;;;;6386762;27;20488;-57
2022/10/19 11:04:50;;;;;;;2.03;1.80;;;15.90;1.00;;;;;;6385280;27;20282;-55
2022/10/19 11:08:00;;;;;;;2.37;2.17;;;15.80;1.00;;;;;;6383757;27;20235;-54
2022/10/19 11:11:13;;;;;;;1.50;1.50;;;15.90;1.00;;;;;;6384721;27;20770;-53
2022/10/19 11:14:28;;;;;;;2.97;1.97;;;15.90;1.00;;;;;;6378811;27;20241;-54
2022/10/19 11:17:36;;;;;;;1.73;1.73;;;16.00;1.00;;;;;;6379180;27;20234;-56
2022/10/19 11:20:46;;;;;;;1.87;1.70;;;16.30;1.00;;;;;;6371015;27;20234;-55
2022/10/19 11:24:00;;;;;;;2.63;2.00;;;16.40;1.00;;;;;;6377228;27;20227;-54
2022/10/19 11:27:14;;;;;;;1.80;1.60;;;16.70;1.00;;;;;;6383449;27;20230;-55
2022/10/19 11:30:20;;;;;;;1.60;1.60;;;16.60;1.00;;;;;;6380632;27;20234;-58
2022/10/19 11:33:33;;;;;;;4.07;1.70;;;16.30;1.00;;;;;;6375494;27;20242;-54
2022/10/19 11:36:49;;;;;;;1.83;1.73;;;16.30;1.00;;;;;;6380188;27;20241;-54
2022/10/19 11:40:05;;;;;;;1.77;1.70;;;16.20;1.00;;;;;;6376976;27;20234;-54
2022/10/19 11:43:15;;;;;;;1.90;1.80;;;16.00;1.00;;;;;;6381444;27;20833;-54
2022/10/19 11:46:26;;;;;;;1.63;1.57;;;16.00;1.00;;;;;;6354676;27;20227;-52
2022/10/19 11:49:41;;;;;;;1.50;1.50;;;16.10;1.00;;;;;;6381588;27;20707;-54
2022/10/19 11:52:52;;;;;;;1.80;1.70;;;16.20;1.00;;;;;;6383505;27;20536;-54
2022/10/19 11:56:00;;;;;;;4.13;1.77;;;16.40;1.00;;;;;;6378248;27;20297;-53
2022/10/19 11:59:11;;;;;;;1.80;1.70;;;16.20;1.00;;;;;;6383476;27;20465;-54
2022/10/19 12:02:40;;;;;;;1.73;1.63;;;16.10;1.00;;;;;;6384238;27;20622;-53
2022/10/19 12:06:03;;;;;;;1.90;1.60;;;15.80;1.00;;;;;;6384214;27;20234;-55
2022/10/19 12:09:21;;;;;;;1.80;1.60;;;15.70;1.00;;;;;;6383397;27;20215;-53
2022/10/19 12:12:30;;;;;;;1.60;1.50;;;16.00;1.00;;;;;;6380839;27;20234;-54
2022/10/19 12:15:38;;;;;;;2.23;1.90;;;16.30;1.00;;;;;;6383045;27;20308;-54
2022/10/19 12:18:46;;;;;;;2.40;2.20;;;16.20;1.00;;;;;;6384358;27;20613;-57
2022/10/19 12:21:50;;;;;;;1.80;1.70;;;16.10;1.00;;;;;;6380337;27;20257;-54
2022/10/19 12:24:55;;;;;;;2.00;1.90;;;15.90;1.00;;;;;;6385144;27;20242;-55
2022/10/19 12:27:58;;;;;;;3.90;2.20;;;15.80;1.00;;;;;;6383154;27;20258;-54
2022/10/19 12:31:02;;;;;;;1.83;1.73;;;15.80;1.00;;;;;;6383488;27;20618;-54
2022/10/19 12:34:15;;;;;;;2.03;1.93;;;15.70;1.00;;;;;;6386317;27;20246;-54
2022/10/19 12:37:25;;;;;;;2.10;1.90;;;15.60;1.00;;;;;;6376955;27;20230;-57
2022/10/19 12:40:37;;;;;;;2.27;2.17;;;15.50;1.00;;;;;;6383295;27;20231;-54
2022/10/19 12:43:53;;;;;;;2.07;1.80;;;15.50;1.00;;;;;;6386086;27;20481;-54
2022/10/19 12:47:00;;;;;;;2.10;2.00;;;15.50;1.00;;;;;;6386425;27;20235;-61
2022/10/19 12:50:04;;;;;;;1.47;1.47;;;15.50;1.00;;;;;;6385013;27;20230;-56
2022/10/19 12:53:07;;;;;;;1.73;1.63;;;15.70;1.00;;;;;;6388067;27;20230;-55
2022/10/19 12:56:17;;;;;;;1.87;1.77;;;15.90;1.00;;;;;;6384912;27;20234;-54
2022/10/19 12:59:24;;;;;;;1.80;1.70;;;16.00;1.00;;;;;;6385731;27;20628;-53
2022/10/19 13:02:30;;;;;;;3.40;1.60;;;16.00;1.00;;;;;;6389268;27;20440;-55
2022/10/19 13:05:39;;;;;;;3.07;1.73;;;16.10;1.00;;;;;;6382716;27;20247;-55
2022/10/19 13:08:47;;;;;;;1.80;1.70;;;16.00;1.00;;;;;;6384918;27;20249;-53
2022/10/19 13:12:28;;;;;;;3.70;1.80;;;15.80;1.00;;;;;;6386107;27;20425;-55
2022/10/19 13:15:56;;;;;;;2.37;1.80;;;15.60;1.00;;;;;;6385600;27;20687;-53
2022/10/19 13:19:04;;;;;;;3.47;2.20;;;15.40;1.00;;;;;;6388476;27;20634;-55
2022/10/19 13:22:27;;;;;;;2.57;1.90;;;15.20;1.00;;;;;;6387289;27;20617;-55
2022/10/19 13:25:31;;;;;;;1.90;1.80;;;15.30;1.00;;;;;;6383368;27;20223;-54
2022/10/19 13:28:39;;;;;;;3.80;1.93;;;15.30;1.00;;;;;;6388333;27;20226;-54
2022/10/19 13:31:41;;;;;;;1.87;1.77;;;15.40;1.00;;;;;;6386608;27;20420;-54
2022/10/19 13:34:45;;;;;;;2.17;2.07;;;15.50;1.00;;;;;;6384136;27;20227;-55
2022/10/19 13:38:30;;;;;;;1.50;1.50;;;15.50;1.00;;;;;;6383730;27;20232;-58
2022/10/19 13:41:51;;;;;;;1.80;1.70;;;15.50;1.00;;;;;;6382897;27;20284;-54
2022/10/19 13:44:56;;;;;;;2.13;2.03;;;15.60;1.00;;;;;;6372507;27;20246;-54
2022/10/19 13:48:08;;;;;;;1.97;1.87;;;15.70;1.00;;;;;;6381723;27;20241;-58
2022/10/19 13:51:22;;;;;;;1.70;1.70;;;15.80;1.00;;;;;;6386182;27;20254;-54
2022/10/19 13:54:43;;;;;;;2.33;2.23;;;15.90;1.00;;;;;;6385709;27;20231;-55
2022/10/19 13:58:00;;;;;;;3.90;2.03;;;15.90;1.00;;;;;;6388105;27;20709;-53
2022/10/19 14:01:26;;;;;;;2.30;2.10;;;15.70;1.00;;;;;;6379713;27;20562;-54
2022/10/19 14:04:39;;;;;;;2.33;2.10;;;15.70;1.00;;;;;;6379528;27;20322;-54
2022/10/19 14:07:49;;;;;;;4.07;2.00;;;15.70;1.00;;;;;;6386041;27;20238;-54
2022/10/19 14:10:59;;;;;;;2.40;2.00;;;15.70;1.00;;;;;;6384008;27;20239;-54
2022/10/19 14:14:14;;;;;;;2.50;2.10;;;15.60;1.00;;;;;;6380019;27;20246;-53
2022/10/19 14:17:23;;;;;;;1.90;1.90;;;15.50;1.00;;;;;;6386410;27;20234;-54
2022/10/19 14:20:29;;;;;;;2.23;2.03;;;15.40;1.00;;;;;;6386090;27;20405;-54
2022/10/19 14:23:34;;;;;;;1.60;1.60;;;15.40;1.00;;;;;;6382251;27;20246;-53
2022/10/19 14:26:37;;;;;;;1.80;1.70;;;15.30;1.00;;;;;;6385134;27;20453;-53
2022/10/19 14:29:45;;;;;;;1.97;1.73;;;15.30;1.00;;;;;;6386105;27;20687;-53
2022/10/19 14:32:49;;;;;;;2.20;1.83;;;15.20;1.00;;;;;;6379842;27;20231;-54
2022/10/19 14:35:53;;;;;;;2.03;1.93;;;15.10;1.00;;;;;;6382298;27;20242;-54
2022/10/19 14:38:56;;;;;;;1.70;1.70;;;15.00;1.00;;;;;;6386156;27;20234;-53
2022/10/19 14:42:04;;;;;;;1.90;1.80;;;14.80;1.00;;;;;;6379049;27;20251;-53
2022/10/19 14:45:15;;;;;;;2.10;1.97;;;14.70;1.00;;;;;;6380423;27;20554;-54
2022/10/19 14:48:21;;;;;;;2.17;1.97;;;14.60;1.00;;;;;;6381134;27;20351;-53
2022/10/19 14:51:32;;;;;;;4.23;2.17;;;14.50;1.00;;;;;;6375943;27;20723;-53
2022/10/19 14:54:39;;;;;;;2.10;2.00;;;14.40;1.00;;;;;;6384338;27;20223;-54
2022/10/19 14:57:45;;;;;;;1.70;1.70;;;14.30;1.00;;;;;;6383314;27;20223;-53
2022/10/19 15:00:50;;;;;;;2.87;2.00;;;14.30;1.00;;;;;;6384811;27;20409;-55
2022/10/19 15:03:55;;;;;;;1.90;1.80;;;14.30;1.00;;;;;;6382066;27;20269;-54
2022/10/19 15:06:59;;;;;;;2.30;2.10;;;14.40;1.00;;;;;;6381914;27;20243;-54
2022/10/19 15:10:06;;;;;;;2.30;2.10;;;14.40;1.00;;;;;;6385230;27;20233;-53
2022/10/19 15:13:19;;;;;;;4.40;2.20;;;14.40;1.00;;;;;;6382525;27;20614;-54
2022/10/19 15:16:40;;;;;;;1.90;1.80;;;14.40;1.00;;;;;;6385129;27;20237;-59
2022/10/19 15:19:45;;;;;;;2.47;2.37;;;14.40;1.00;;;;;;6384822;27;20235;-54
2022/10/19 15:22:48;;;;;;;2.07;1.87;;;14.30;1.00;;;;;;6373881;27;20258;-53
2022/10/19 15:25:59;;;;;;;2.27;2.10;;;14.30;1.00;;;;;;6378867;27;20242;-54
2022/10/19 15:29:11;;;;;;;2.10;1.90;;;14.20;1.00;;;;;;6385368;27;20250;-53
2022/10/19 15:32:15;;;;;;;2.20;2.10;;;14.10;1.00;;;;;;6375917;27;20242;-54
2022/10/19 15:35:25;;;;;;;2.37;2.13;;;14.00;1.00;;;;;;6384915;27;20449;-53
2022/10/19 15:38:30;;;;;;;3.33;2.33;;;13.90;1.00;;;;;;6351541;27;20226;-54
2022/10/19 15:41:36;;;;;;;2.07;2.07;;;13.80;1.00;;;;;;6385578;27;20230;-54
2022/10/19 15:44:42;;;;;;;2.77;2.57;;;13.60;1.00;;;;;;6382840;27;20241;-54
2022/10/19 15:48:23;;;;;;;2.57;1.93;;;13.50;1.00;;;;;;6383144;27;20238;-54
2022/10/19 15:51:45;;;;;;;2.30;2.20;;;13.40;1.00;;;;;;6384479;27;20235;-53
2022/10/19 15:54:48;;;;;;;2.87;2.30;;;13.30;1.00;;;;;;6382468;27;20218;-54
2022/10/19 15:57:58;;;;;;;2.30;2.30;;;13.20;1.00;;;;;;6380417;27;20812;-54
2022/10/19 16:01:01;;;;;;;2.23;2.10;;;13.10;1.00;;;;;;6383921;27;20735;-53
2022/10/19 16:04:04;;;;;;;2.60;2.50;;;13.00;1.00;;;;;;6385022;27;20710;-53
2022/10/19 16:07:09;;;;;;;2.63;2.43;;;12.90;1.00;;;;;;6381976;27;20237;-55
2022/10/19 16:10:16;;;;;;;2.00;2.00;;;12.80;1.00;;;;;;6380938;27;20246;-53
2022/10/19 16:13:18;;;;;;;2.40;2.30;;;12.70;1.00;;;;;;6388492;27;20729;-57
2022/10/19 16:16:23;;;;;;;2.80;2.60;;;12.60;1.00;;;;;;6388810;27;20425;-54
2022/10/19 16:19:26;;;;;;;2.30;2.30;;;12.50;1.00;;;;;;6352837;27;20227;-51
2022/10/19 16:22:30;;;;;;;2.67;2.57;;;12.40;1.00;;;;;;6388274;27;20431;-53
2022/10/19 16:25:33;;;;;;;2.40;2.40;;;12.30;1.00;;;;;;6386327;27;20238;-54
2022/10/19 16:28:36;;;;;;;2.73;2.63;;;12.20;1.00;;;;;;6387837;27;20400;-54